Time;durP1;ratioP1;P1;durP2;ratioP2;P2;SDS_P1;SDS_P2;PMS_P1;PMS_P2;Temp;Humidity;BMP_temperature;BMP_pressure;BME280_temperature;BME280_humidity;BME280_pressure;Samples;Min_cycle;Max_cycle;Signal;HPM_P1;HPM_P2
2023/01/12 00:01:59;;;;;;;32.70;30.80;;;;;;;6.85;100.00;100219.16;5022652;28;20819;-44
2023/01/12 00:04:29;;;;;;;33.13;30.73;;;;;;;6.80;100.00;100240.09;5022337;28;20433;-45
2023/01/12 00:06:57;;;;;;;32.70;30.50;;;;;;;6.75;100.00;100258.38;5021995;28;20480;-48
2023/01/12 00:09:24;;;;;;;31.07;28.87;;;;;;;6.56;100.00;100245.69;5021921;28;20460;-50
2023/01/12 00:11:52;;;;;;;30.50;28.80;;;;;;;6.42;100.00;100244.66;5021604;28;20452;-49
2023/01/12 00:14:20;;;;;;;28.07;26.63;;;;;;;6.30;100.00;100232.06;5022164;28;20463;-44
2023/01/12 00:16:49;;;;;;;28.30;26.60;;;;;;;6.25;100.00;100242.34;5021671;28;20448;-45
2023/01/12 00:19:18;;;;;;;28.13;26.50;;;;;;;6.13;100.00;100240.16;5021882;28;20452;-46
2023/01/12 00:21:57;;;;;;;28.03;26.47;;;;;;;6.06;100.00;100236.56;5022092;28;20465;-45
2023/01/12 00:24:26;;;;;;;27.57;25.80;;;;;;;6.02;100.00;100223.91;5022454;28;20934;-47
2023/01/12 00:26:54;;;;;;;27.20;25.60;;;;;;;6.01;100.00;100203.72;5021947;28;20500;-46
2023/01/12 00:29:23;;;;;;;27.17;25.60;;;;;;;6.01;100.00;100209.84;5021426;28;20457;-49
2023/01/12 00:31:53;;;;;;;27.90;26.20;;;;;;;6.00;100.00;100205.53;5024128;28;20459;-47
2023/01/12 00:34:21;;;;;;;28.13;26.27;;;;;;;5.99;100.00;100209.19;5025654;28;20432;-48
2023/01/12 00:36:49;;;;;;;28.07;26.57;;;;;;;5.98;100.00;100214.66;5025597;28;20973;-45
2023/01/12 00:39:17;;;;;;;28.97;26.90;;;;;;;5.94;100.00;100221.34;5026098;28;20455;-48
2023/01/12 00:47:18;;;;;;;28.73;27.03;;;;;;;5.80;100.00;100233.47;5025886;28;20425;-47
2023/01/12 00:49:46;;;;;;;28.83;27.40;;;;;;;5.77;100.00;100233.00;5025663;28;20449;-47
2023/01/12 00:52:16;;;;;;;29.33;27.57;;;;;;;5.75;100.00;100229.72;5025382;28;20495;-49
2023/01/12 00:54:57;;;;;;;30.20;28.00;;;;;;;5.68;100.00;100224.31;5025446;28;20416;-48
2023/01/12 00:57:25;;;;;;;29.33;27.73;;;;;;;5.65;100.00;100235.25;5025614;28;20464;-45
2023/01/12 00:59:53;;;;;;;30.63;28.67;;;;;;;5.64;100.00;100238.09;5025803;28;20460;-47
2023/01/12 01:02:23;;;;;;;29.93;27.90;;;;;;;5.62;100.00;100240.88;5025010;28;20467;-50
2023/01/12 01:04:51;;;;;;;30.13;28.00;;;;;;;5.63;100.00;100239.06;5025827;28;20437;-47
2023/01/12 01:07:20;;;;;;;31.43;28.80;;;;;;;5.58;100.00;100232.47;5025602;28;20499;-46
2023/01/12 01:09:48;;;;;;;28.97;27.17;;;;;;;5.56;100.00;100225.72;5024631;28;20511;-45
2023/01/12 01:12:16;;;;;;;30.07;27.90;;;;;;;5.57;100.00;100237.97;5024128;28;20488;-47
2023/01/12 01:14:43;;;;;;;31.73;29.00;;;;;;;5.60;100.00;100240.25;5025473;28;20493;-46
2023/01/12 01:17:11;;;;;;;31.63;29.37;;;;;;;5.62;100.00;100240.88;5025161;28;20965;-44
2023/01/12 01:19:42;;;;;;;32.17;28.93;;;;;;;5.61;100.00;100238.44;5024698;28;20460;-47
2023/01/12 01:22:11;;;;;;;32.60;29.70;;;;;;;5.60;100.00;100245.53;5024802;28;20461;-47
2023/01/12 01:24:38;;;;;;;32.90;29.83;;;;;;;5.59;100.00;100239.44;5024577;28;20429;-48
2023/01/12 01:27:07;;;;;;;33.73;30.87;;;;;;;5.60;100.00;100232.31;5024838;28;20472;-49
2023/01/12 01:29:35;;;;;;;33.90;30.90;;;;;;;5.63;100.00;100228.50;5024237;28;20461;-46
2023/01/12 01:32:03;;;;;;;32.70;30.07;;;;;;;5.66;100.00;100228.13;5024023;28;20517;-47
2023/01/12 01:34:30;;;;;;;33.23;30.30;;;;;;;5.67;100.00;100227.97;5024048;28;20452;-48
2023/01/12 01:37:00;;;;;;;33.60;31.00;;;;;;;5.72;100.00;100233.53;5022822;28;20439;-49
2023/01/12 01:39:27;;;;;;;35.70;30.20;;;;;;;5.78;100.00;100229.38;5024545;28;20545;-47
2023/01/12 01:41:55;;;;;;;35.30;30.60;;;;;;;5.80;100.00;100243.22;5023650;28;20465;-47
2023/01/12 01:44:49;;;;;;;34.20;31.33;;;;;;;5.85;100.00;100238.25;5024270;28;20439;-44
2023/01/12 01:47:25;;;;;;;36.17;32.30;;;;;;;5.82;100.00;100226.19;5024149;28;20434;-51
2023/01/12 01:49:55;;;;;;;35.03;32.23;;;;;;;5.81;100.00;100235.13;5024166;28;20460;-45
2023/01/12 01:52:30;;;;;;;35.10;32.00;;;;;;;5.78;100.00;100226.72;5024369;28;20463;-45
2023/01/12 01:55:01;;;;;;;36.07;32.80;;;;;;;5.75;100.00;100225.25;5024195;28;20423;-50
2023/01/12 01:57:34;;;;;;;35.10;31.90;;;;;;;5.71;100.00;100223.13;5024434;28;20448;-46
2023/01/12 02:00:05;;;;;;;34.90;31.70;;;;;;;5.69;100.00;100218.03;5023590;28;20441;-46
2023/01/12 02:02:35;;;;;;;34.27;31.30;;;;;;;5.68;100.00;100226.13;5023321;28;20473;-46
2023/01/12 02:05:03;;;;;;;34.70;31.50;;;;;;;5.65;100.00;100222.03;5024061;28;20464;-51
2023/01/12 02:07:32;;;;;;;36.60;32.90;;;;;;;5.64;100.00;100216.91;5024660;28;20436;-46
2023/01/12 02:10:00;;;;;;;35.23;31.83;;;;;;;5.63;100.00;100226.66;5024159;28;20525;-47
2023/01/12 02:18:14;;;;;;;36.83;33.03;;;;;;;5.65;100.00;100224.66;5024025;28;20499;-48
2023/01/12 02:20:49;;;;;;;36.57;32.53;;;;;;;5.65;100.00;100224.66;5023695;28;20464;-49
2023/01/12 02:23:48;;;;;;;37.70;33.90;;;;;;;5.63;100.00;100209.97;5023159;28;20873;-48
2023/01/12 02:27:02;;;;;;;35.50;32.00;;;;;;;5.59;100.00;100210.31;5023249;28;20440;-53
2023/01/12 02:30:14;;;;;;;37.97;32.87;;;;;;;5.55;100.00;100208.22;5023313;28;20465;-46
2023/01/12 02:32:55;;;;;;;34.03;30.90;;;;;;;5.55;100.00;100210.88;4988025;28;20457;-46
2023/01/12 02:35:31;;;;;;;34.13;31.33;;;;;;;5.54;100.00;100211.88;5023678;28;20449;-46
2023/01/12 02:38:07;;;;;;;33.90;31.10;;;;;;;5.55;100.00;100197.66;5023562;28;20524;-46
2023/01/12 02:40:44;;;;;;;35.23;31.67;;;;;;;5.57;100.00;100201.75;5023214;28;20456;-46
2023/01/12 02:43:16;;;;;;;35.97;32.40;;;;;;;5.64;100.00;100203.69;5023078;28;20480;-48
2023/01/12 02:45:51;;;;;;;36.07;33.07;;;;;;;5.69;100.00;100201.34;5023099;28;20437;-51
2023/01/12 02:48:27;;;;;;;33.87;30.83;;;;;;;5.75;100.00;100205.91;5023178;28;20439;-45
2023/01/12 02:50:59;;;;;;;35.63;31.83;;;;;;;5.78;100.00;100210.84;5023413;28;20452;-50
2023/01/12 02:53:32;;;;;;;37.90;34.17;;;;;;;5.84;100.00;100208.31;5022762;28;20889;-52
2023/01/12 02:56:03;;;;;;;41.43;33.80;;;;;;;5.90;100.00;100209.44;5022790;28;20443;-46
2023/01/12 02:58:36;;;;;;;37.30;33.73;;;;;;;5.93;100.00;100199.34;5022854;28;20429;-50
2023/01/12 03:01:05;;;;;;;35.27;32.10;;;;;;;5.94;100.00;100197.50;5023159;28;20453;-48
2023/01/12 03:03:38;;;;;;;33.47;30.57;;;;;;;5.98;100.00;100196.97;5022450;28;20468;-46
2023/01/12 03:06:07;;;;;;;35.00;31.57;;;;;;;6.01;100.00;100195.78;5022787;28;20437;-51
2023/01/12 03:08:39;;;;;;;33.67;31.07;;;;;;;6.04;100.00;100188.28;5022392;28;20479;-46
2023/01/12 03:11:12;;;;;;;35.93;32.97;;;;;;;6.06;100.00;100202.16;5022202;28;20480;-46
2023/01/12 03:13:45;;;;;;;33.70;30.60;;;;;;;6.07;100.00;100205.63;5022042;28;20461;-47
2023/01/12 03:16:17;;;;;;;33.83;31.23;;;;;;;6.08;100.00;100208.13;5022958;28;20438;-50
2023/01/12 03:18:51;;;;;;;33.00;30.00;;;;;;;6.04;100.00;100209.47;5022315;28;20429;-49
2023/01/12 03:21:25;;;;;;;33.77;30.40;;;;;;;6.02;100.00;100206.19;5021594;28;20429;-47
2023/01/12 03:24:00;;;;;;;31.07;28.63;;;;;;;6.00;100.00;100202.88;5021899;28;20535;-47
2023/01/12 03:26:30;;;;;;;33.67;30.37;;;;;;;6.01;100.00;100207.19;5022496;28;20435;-50
2023/01/12 03:29:05;;;;;;;31.43;29.33;;;;;;;6.00;100.00;100197.59;5022338;28;20433;-50
2023/01/12 03:31:33;;;;;;;33.10;30.17;;;;;;;6.01;100.00;100190.47;5022861;28;20431;-49
2023/01/12 03:34:03;;;;;;;31.80;29.83;;;;;;;6.02;100.00;100190.31;5022774;28;20516;-48
2023/01/12 03:36:44;;;;;;;33.03;30.03;;;;;;;6.05;100.00;100189.13;5022759;28;20440;-48
2023/01/12 03:39:20;;;;;;;33.07;29.87;;;;;;;6.05;100.00;100184.66;5022001;28;20456;-47
2023/01/12 03:41:56;;;;;;;32.37;29.60;;;;;;;6.06;100.00;100186.28;5022404;28;20457;-46
2023/01/12 03:44:34;;;;;;;32.60;29.50;;;;;;;6.08;100.00;100183.47;5022206;28;20472;-48
2023/01/12 03:47:09;;;;;;;31.70;28.90;;;;;;;6.11;100.00;100185.75;5022376;28;20942;-49
2023/01/12 03:49:45;;;;;;;32.27;29.23;;;;;;;6.13;100.00;100187.22;5022513;28;20452;-48
2023/01/12 03:52:14;;;;;;;32.47;29.77;;;;;;;6.11;100.00;100183.94;5021613;28;20456;-44
2023/01/12 03:54:43;;;;;;;32.60;29.97;;;;;;;6.14;100.00;100182.75;5022333;28;20445;-50
2023/01/12 03:57:12;;;;;;;32.83;29.80;;;;;;;6.13;100.00;100176.63;5022094;28;20433;-49
2023/01/12 03:59:41;;;;;;;33.40;30.90;;;;;;;6.15;100.00;100172.97;5022029;28;20456;-49
2023/01/12 04:02:08;;;;;;;33.10;30.40;;;;;;;6.15;100.00;100175.63;5021766;28;20456;-46
2023/01/12 04:04:36;;;;;;;33.17;30.30;;;;;;;6.18;100.00;100167.31;5021803;28;20910;-48
2023/01/12 04:07:05;;;;;;;34.23;30.83;;;;;;;6.17;100.00;100161.19;5024795;28;20443;-46
2023/01/12 04:09:33;;;;;;;34.40;31.70;;;;;;;6.16;100.00;100164.03;5025791;28;20449;-47
2023/01/12 04:12:10;;;;;;;34.53;31.70;;;;;;;6.11;100.00;100152.16;5025319;28;20463;-49
2023/01/12 04:14:38;;;;;;;34.97;32.13;;;;;;;6.06;100.00;100148.44;5026442;28;20914;-50
2023/01/12 04:17:06;;;;;;;34.17;31.67;;;;;;;5.99;100.00;100150.97;5025205;28;20440;-46
2023/01/12 04:19:33;;;;;;;34.93;30.83;;;;;;;5.96;100.00;100150.50;5025442;28;20483;-47
2023/01/12 04:24:48;;;;;;;35.40;32.30;;;;;;;5.86;100.00;100152.59;5025245;28;20499;-48
2023/01/12 04:27:16;;;;;;;34.17;31.17;;;;;;;5.81;100.00;100146.97;5026410;28;20429;-48
2023/01/12 04:29:44;;;;;;;34.27;31.40;;;;;;;5.77;100.00;100145.69;5025264;28;20826;-46
2023/01/12 04:32:12;;;;;;;34.73;31.67;;;;;;;5.75;100.00;100137.94;5024702;28;20452;-46
2023/01/12 04:34:39;;;;;;;33.30;31.00;;;;;;;5.74;100.00;100136.28;5024824;28;20448;-50
2023/01/12 04:37:07;;;;;;;33.97;31.13;;;;;;;5.71;100.00;100123.44;5020095;28;20443;-46
2023/01/12 04:39:34;;;;;;;34.27;31.47;;;;;;;5.71;100.00;100127.88;4986393;28;20526;-46
2023/01/12 04:42:04;;;;;;;34.10;31.90;;;;;;;5.71;100.00;100122.59;4985357;28;20467;-47
2023/01/12 04:44:33;;;;;;;34.53;32.03;;;;;;;5.70;100.00;100124.44;4985999;28;20474;-50
2023/01/12 04:47:01;;;;;;;34.30;31.90;;;;;;;5.71;100.00;100112.03;4985957;28;20441;-50
2023/01/12 04:49:28;;;;;;;37.17;34.13;;;;;;;5.71;100.00;100120.78;4986066;28;20465;-48
2023/01/12 04:51:56;;;;;;;35.80;33.20;;;;;;;5.72;100.00;100105.75;4986346;28;20459;-46
2023/01/12 04:54:24;;;;;;;37.10;34.00;;;;;;;5.73;100.00;100102.09;4986112;28;20433;-46
2023/01/12 04:56:52;;;;;;;34.20;31.80;;;;;;;5.76;100.00;100099.09;4985329;28;20441;-47
2023/01/12 04:59:21;;;;;;;34.73;31.93;;;;;;;5.78;100.00;100094.44;4986412;28;20513;-46
2023/01/12 05:01:48;;;;;;;36.17;33.67;;;;;;;5.81;100.00;100094.06;4985069;28;20462;-50
2023/01/12 05:04:16;;;;;;;35.37;32.57;;;;;;;5.85;100.00;100092.72;4985724;28;20585;-50
2023/01/12 05:06:44;;;;;;;36.20;33.10;;;;;;;5.87;100.00;100091.56;4986200;28;20447;-46
2023/01/12 05:11:59;;;;;;;35.00;32.60;;;;;;;5.92;100.00;100083.88;4985596;28;20471;-46
2023/01/12 05:14:29;;;;;;;35.70;33.13;;;;;;;5.97;100.00;100088.66;4986274;28;20495;-46
2023/01/12 05:16:58;;;;;;;34.83;32.03;;;;;;;5.98;100.00;100080.50;4985622;28;20936;-49
2023/01/12 05:19:25;;;;;;;36.00;32.87;;;;;;;6.01;100.00;100077.50;4986010;28;20466;-47
2023/01/12 05:21:53;;;;;;;37.03;33.90;;;;;;;6.03;100.00;100075.47;4985094;28;20490;-48
2023/01/12 05:24:21;;;;;;;35.00;32.40;;;;;;;6.06;100.00;100067.16;4985550;28;20518;-49
2023/01/12 05:26:48;;;;;;;36.63;33.27;;;;;;;6.07;100.00;100050.28;4985775;28;20439;-52
2023/01/12 05:29:16;;;;;;;35.50;32.90;;;;;;;6.13;100.00;100054.84;4986410;28;20478;-48
2023/01/12 05:31:45;;;;;;;36.90;33.70;;;;;;;6.17;100.00;100041.25;4986403;28;20475;-49
2023/01/12 05:34:13;;;;;;;36.20;33.30;;;;;;;6.20;100.00;100041.69;4986027;28;20525;-52
2023/01/12 05:36:41;;;;;;;35.20;32.50;;;;;;;6.25;100.00;100038.47;4986220;28;20463;-53
2023/01/12 05:39:08;;;;;;;37.87;34.37;;;;;;;6.27;100.00;100042.63;5023278;28;20993;-52
2023/01/12 05:41:36;;;;;;;36.87;33.83;;;;;;;6.31;100.00;100035.91;5023622;28;20441;-47
2023/01/12 05:44:02;;;;;;;36.77;34.23;;;;;;;6.37;100.00;100037.00;5024210;28;20469;-48
2023/01/12 05:46:32;;;;;;;36.60;33.63;;;;;;;6.38;100.00;100030.72;5023920;28;20436;-48
2023/01/12 05:49:01;;;;;;;35.17;32.40;;;;;;;6.41;100.00;100019.75;5024237;28;20436;-48
2023/01/12 05:51:29;;;;;;;35.60;32.60;;;;;;;6.44;100.00;100024.66;5023120;28;20437;-46
2023/01/12 05:53:57;;;;;;;36.20;33.17;;;;;;;6.47;100.00;100016.34;5022932;28;20465;-46
2023/01/12 05:56:27;;;;;;;34.67;32.10;;;;;;;6.49;100.00;100009.03;5023562;28;20429;-44
2023/01/12 05:58:57;;;;;;;36.20;33.40;;;;;;;6.49;100.00;100006.38;5024469;28;20436;-49
2023/01/12 06:01:26;;;;;;;35.30;32.37;;;;;;;6.50;100.00;99998.25;5023895;28;20433;-48
2023/01/12 06:03:55;;;;;;;36.33;33.40;;;;;;;6.54;100.00;99991.56;5023351;28;20500;-46
2023/01/12 06:06:26;;;;;;;35.30;32.70;;;;;;;6.55;100.00;99981.78;5024234;28;20433;-45
2023/01/12 06:08:54;;;;;;;36.10;33.23;;;;;;;6.56;100.00;99983.44;5023555;28;20489;-46
2023/01/12 06:14:09;;;;;;;35.63;32.50;;;;;;;6.57;100.00;99971.84;5023536;28;20433;-46
2023/01/12 06:16:37;;;;;;;36.70;34.17;;;;;;;6.56;100.00;99970.19;5023576;28;20484;-48
2023/01/12 06:19:05;;;;;;;37.20;34.17;;;;;;;6.55;100.00;99974.66;5023881;28;20516;-46
2023/01/12 06:21:35;;;;;;;34.70;31.93;;;;;;;6.57;100.00;99966.53;5022471;28;20435;-48
2023/01/12 06:24:02;;;;;;;36.00;33.50;;;;;;;6.58;100.00;99962.84;5022977;28;20512;-48
2023/01/12 06:26:30;;;;;;;35.47;33.13;;;;;;;6.58;100.00;99957.56;5023805;28;20440;-51
2023/01/12 06:28:58;;;;;;;37.50;34.50;;;;;;;6.61;100.00;99951.88;5021847;28;20435;-48
2023/01/12 06:31:25;;;;;;;37.03;34.10;;;;;;;6.61;100.00;99947.41;5023021;28;20494;-46
2023/01/12 06:33:53;;;;;;;37.47;34.77;;;;;;;6.61;100.00;99942.13;5022866;28;20443;-46
2023/01/12 06:36:20;;;;;;;36.23;33.63;;;;;;;6.63;100.00;99941.94;5022984;28;20434;-47
2023/01/12 06:38:49;;;;;;;36.40;33.50;;;;;;;6.63;100.00;99934.78;5022402;28;20437;-45
2023/01/12 06:44:02;;;;;;;35.13;32.77;;;;;;;6.65;100.00;99910.75;4983155;28;20435;-45
2023/01/12 06:46:30;;;;;;;35.40;33.17;;;;;;;6.66;100.00;99912.38;4983728;28;20447;-44
2023/01/12 06:48:58;;;;;;;35.20;32.90;;;;;;;6.66;100.00;99899.13;4982891;28;20994;-46
2023/01/12 06:51:26;;;;;;;37.03;33.73;;;;;;;6.64;100.00;99904.66;4982696;28;20435;-45
2023/01/12 06:53:55;;;;;;;34.70;32.17;;;;;;;6.65;100.00;99885.09;4982918;28;20441;-50
2023/01/12 06:56:23;;;;;;;35.47;32.43;;;;;;;6.64;100.00;99883.44;4982608;28;20507;-46
2023/01/12 06:58:50;;;;;;;33.20;30.60;;;;;;;6.63;100.00;99871.19;4982471;28;20435;-45
2023/01/12 07:01:18;;;;;;;37.10;34.13;;;;;;;6.63;100.00;99867.75;4981975;28;20430;-47
2023/01/12 07:03:46;;;;;;;34.30;31.97;;;;;;;6.65;100.00;99853.31;4982399;28;20441;-45
2023/01/12 07:06:14;;;;;;;35.23;32.60;;;;;;;6.67;100.00;99845.16;4981383;28;20475;-50
2023/01/12 07:08:42;;;;;;;35.10;32.60;;;;;;;6.67;100.00;99840.69;4982669;28;20439;-47
2023/01/12 07:11:13;;;;;;;35.70;33.47;;;;;;;6.68;100.00;99833.56;4982876;28;20533;-46
2023/01/12 07:13:41;;;;;;;35.97;33.37;;;;;;;6.68;100.00;99831.72;4982076;28;20490;-46
2023/01/12 07:16:09;;;;;;;35.43;32.97;;;;;;;6.68;100.00;99830.91;4982263;28;20435;-44
2023/01/12 07:18:36;;;;;;;36.53;34.10;;;;;;;6.68;100.00;99833.56;4981527;28;20434;-47
2023/01/12 07:21:05;;;;;;;36.77;33.90;;;;;;;6.68;100.00;99815.81;4982487;28;20455;-44
2023/01/12 07:23:33;;;;;;;35.33;33.07;;;;;;;6.68;100.00;99804.41;4981622;28;21062;-47
2023/01/12 07:26:01;;;;;;;36.00;33.50;;;;;;;6.69;100.00;99806.03;4981954;28;20471;-46
2023/01/12 07:28:32;;;;;;;35.90;33.60;;;;;;;6.68;100.00;99799.94;4981943;28;20435;-47
2023/01/12 07:31:01;;;;;;;35.87;33.60;;;;;;;6.69;100.00;99793.59;4981440;28;20517;-47
2023/01/12 07:33:29;;;;;;;35.93;33.73;;;;;;;6.72;100.00;99789.75;4982109;28;20498;-46
2023/01/12 07:35:57;;;;;;;34.70;32.60;;;;;;;6.75;100.00;99789.34;4982370;28;20437;-45
2023/01/12 07:38:25;;;;;;;37.03;34.33;;;;;;;6.78;100.00;99769.63;5008426;28;20440;-47
2023/01/12 07:40:53;;;;;;;36.27;33.77;;;;;;;6.78;100.00;99767.75;5020931;28;20445;-45
2023/01/12 07:43:20;;;;;;;37.13;34.90;;;;;;;6.82;100.00;99758.41;5022246;28;20469;-48
2023/01/12 07:45:49;;;;;;;35.70;33.50;;;;;;;6.85;100.00;99757.22;5022320;28;20473;-46
2023/01/12 07:48:17;;;;;;;37.53;34.70;;;;;;;6.85;100.00;99750.06;5021427;28;20434;-46
2023/01/12 07:50:45;;;;;;;35.97;33.17;;;;;;;6.89;100.00;99743.38;5022062;28;20488;-50
2023/01/12 07:53:12;;;;;;;38.00;35.70;;;;;;;6.91;100.00;99736.03;5021107;28;20461;-51
2023/01/12 07:55:42;;;;;;;36.97;34.47;;;;;;;6.92;100.00;99724.44;5021740;28;20858;-47
2023/01/12 07:58:10;;;;;;;37.43;34.97;;;;;;;6.95;100.00;99736.47;5022162;28;20432;-45
2023/01/12 08:00:38;;;;;;;35.07;33.00;;;;;;;6.97;100.00;99718.53;5020996;28;20449;-46
2023/01/12 08:03:09;;;;;;;37.93;35.20;;;;;;;7.01;100.00;99711.81;5021748;28;20453;-46
2023/01/12 08:05:38;;;;;;;36.07;33.93;;;;;;;7.05;100.00;99707.75;5022039;28;20504;-46
2023/01/12 08:08:07;;;;;;;34.67;32.67;;;;;;;7.07;100.00;99690.66;5021907;28;20436;-45
2023/01/12 08:10:34;;;;;;;36.30;34.17;;;;;;;7.10;100.00;99692.06;5020691;28;20528;-44
2023/01/12 08:13:02;;;;;;;35.27;32.97;;;;;;;7.12;100.00;99674.13;5020167;28;21050;-45
2023/01/12 08:15:35;;;;;;;35.40;33.30;;;;;;;7.15;100.00;99671.06;5021383;28;20440;-44
2023/01/12 08:18:09;;;;;;;34.50;32.70;;;;;;;7.18;100.00;99660.91;5020226;28;20511;-46
2023/01/12 08:20:37;;;;;;;34.53;32.37;;;;;;;7.17;100.00;99651.28;5021748;28;20452;-49
2023/01/12 08:23:09;;;;;;;35.10;32.80;;;;;;;7.22;100.00;99626.84;5021751;28;20464;-47
2023/01/12 08:25:43;;;;;;;35.40;33.27;;;;;;;7.22;100.00;99625.00;5021663;28;20485;-50
2023/01/12 08:28:17;;;;;;;34.43;32.30;;;;;;;7.23;100.00;99613.38;5021852;28;20433;-52
2023/01/12 08:30:47;;;;;;;32.57;30.77;;;;;;;7.25;100.00;99610.53;5022403;28;20465;-50
2023/01/12 08:33:16;;;;;;;32.80;30.90;;;;;;;7.27;100.00;99612.97;5022701;28;20461;-48
2023/01/12 08:35:45;;;;;;;34.10;32.20;;;;;;;7.26;100.00;99606.84;5022546;28;20471;-47
2023/01/12 08:38:13;;;;;;;34.00;31.70;;;;;;;7.28;100.00;99602.16;5021654;28;20443;-49
2023/01/12 08:46:11;;;;;;;31.60;29.80;;;;;;;7.30;100.00;99586.88;5021694;28;20540;-49
2023/01/12 08:48:40;;;;;;;32.90;31.00;;;;;;;7.31;100.00;99575.25;5022972;28;20439;-48
2023/01/12 08:51:08;;;;;;;31.20;29.40;;;;;;;7.31;100.00;99574.44;5022675;28;20449;-47
2023/01/12 08:53:36;;;;;;;31.40;29.53;;;;;;;7.32;100.00;99563.59;5024590;28;20452;-45
2023/01/12 08:56:04;;;;;;;31.67;29.87;;;;;;;7.35;100.00;99543.84;5025001;28;20429;-48
2023/01/12 08:58:32;;;;;;;31.13;29.27;;;;;;;7.35;100.00;99546.50;5025474;28;20429;-51
2023/01/12 09:01:07;;;;;;;31.50;29.80;;;;;;;7.35;100.00;99541.97;5026464;28;20460;-51
2023/01/12 09:03:35;;;;;;;32.20;30.40;;;;;;;7.37;100.00;99525.88;5026066;28;21216;-46
2023/01/12 09:06:11;;;;;;;29.80;28.20;;;;;;;7.39;100.00;99529.94;5025852;28;20481;-51
2023/01/12 09:08:38;;;;;;;29.90;28.20;;;;;;;7.42;100.00;99526.06;5026496;28;20930;-52
2023/01/12 09:11:07;;;;;;;30.60;28.90;;;;;;;7.41;100.00;99535.03;5025820;28;20460;-51
2023/01/12 09:13:35;;;;;;;29.53;27.93;;;;;;;7.42;100.00;99516.28;5025608;28;20461;-48
2023/01/12 09:16:04;;;;;;;29.80;28.10;;;;;;;7.46;100.00;99501.59;5026560;28;20437;-52
2023/01/12 09:18:40;;;;;;;30.03;28.63;;;;;;;7.46;100.00;99500.78;5025859;28;20428;-50
2023/01/12 09:21:10;;;;;;;29.73;28.13;;;;;;;7.52;100.00;99507.91;5026603;28;20475;-47
2023/01/12 09:23:39;;;;;;;29.00;27.33;;;;;;;7.53;100.00;99504.22;5025517;28;20464;-50
2023/01/12 09:26:08;;;;;;;28.90;27.50;;;;;;;7.56;100.00;99523.19;5025576;28;20481;-50
2023/01/12 09:28:37;;;;;;;29.20;27.70;;;;;;;7.61;100.00;99501.34;5025617;28;20425;-52
2023/01/12 09:31:06;;;;;;;28.23;26.83;;;;;;;7.59;100.00;99508.69;5025206;28;20465;-53
2023/01/12 09:33:35;;;;;;;27.83;26.23;;;;;;;7.61;100.00;99510.13;5025496;28;20457;-49
2023/01/12 09:36:05;;;;;;;28.87;27.37;;;;;;;7.64;100.00;99501.75;5025093;28;20431;-50
2023/01/12 09:38:35;;;;;;;28.10;26.70;;;;;;;7.66;100.00;99510.31;5024584;28;20503;-51
2023/01/12 09:41:09;;;;;;;29.60;28.00;;;;;;;7.68;100.00;99505.63;5038649;22;20489;-44
2023/01/12 09:49:16;;;;;;;28.47;26.87;;;;;;;7.78;100.00;99506.00;5018452;28;20433;-51
2023/01/12 09:51:52;;;;;;;28.30;26.90;;;;;;;7.84;100.00;99512.31;5017817;28;20468;-45
2023/01/12 09:54:21;;;;;;;29.07;27.47;;;;;;;7.92;100.00;99506.78;5018539;28;20433;-46
2023/01/12 09:56:56;;;;;;;29.00;27.60;;;;;;;7.99;100.00;99517.38;5018953;28;20437;-48
2023/01/12 09:59:43;;;;;;;28.13;26.63;;;;;;;8.03;100.00;99513.28;5017612;28;20981;-49
2023/01/12 10:02:13;;;;;;;28.37;26.87;;;;;;;8.07;100.00;99514.47;5018098;28;20470;-48
2023/01/12 10:04:40;;;;;;;28.70;27.30;;;;;;;8.09;100.00;99529.19;5017538;28;20849;-45
2023/01/12 10:07:14;;;;;;;28.37;26.97;;;;;;;8.13;100.00;99525.06;5018030;28;20508;-49
2023/01/12 10:09:43;;;;;;;27.57;26.27;;;;;;;8.15;100.00;99511.59;5018561;28;20980;-46
2023/01/12 10:12:20;;;;;;;28.30;26.80;;;;;;;8.23;100.00;99498.06;5016694;28;20488;-50
2023/01/12 10:15:04;;;;;;;28.53;27.13;;;;;;;8.29;100.00;99510.53;5018238;28;20478;-49
2023/01/12 10:17:40;;;;;;;28.67;27.17;;;;;;;8.35;100.00;99512.34;5017969;28;20788;-49
2023/01/12 10:20:26;;;;;;;28.73;27.03;;;;;;;8.43;100.00;99511.28;5018315;28;20457;-47
2023/01/12 10:22:58;;;;;;;28.57;27.03;;;;;;;8.49;100.00;99518.41;5017302;28;20461;-47
2023/01/12 10:25:34;;;;;;;28.33;26.83;;;;;;;8.54;100.00;99519.38;5016091;28;20441;-50
2023/01/12 10:28:07;;;;;;;29.83;28.20;;;;;;;8.63;100.00;99531.41;5016730;28;20539;-50
2023/01/12 10:30:38;;;;;;;30.00;28.50;;;;;;;8.67;100.00;99526.47;5017119;28;20468;-48
2023/01/12 10:33:14;;;;;;;30.87;28.83;;;;;;;8.68;100.00;99515.66;5017028;28;20857;-48
2023/01/12 10:35:51;;;;;;;30.20;28.50;;;;;;;8.73;100.00;99521.13;5016946;28;20464;-49
2023/01/12 10:38:22;;;;;;;30.17;28.50;;;;;;;8.78;100.00;99523.16;5012390;28;20438;-48
2023/01/12 10:41:06;;;;;;;32.03;29.73;;;;;;;8.83;100.00;99526.81;5013838;28;20457;-47
2023/01/12 10:43:34;;;;;;;30.10;28.30;;;;;;;8.87;100.00;99520.00;5017167;28;20476;-49
2023/01/12 10:46:10;;;;;;;31.03;28.90;;;;;;;8.92;100.00;99507.91;5016942;28;20437;-45
2023/01/12 10:48:41;;;;;;;32.03;29.30;;;;;;;8.95;100.00;99548.19;5016433;28;20452;-49
2023/01/12 10:51:20;;;;;;;30.77;28.80;;;;;;;8.96;100.00;99536.50;5016377;28;20461;-48
2023/01/12 10:53:51;;;;;;;30.00;28.30;;;;;;;8.97;100.00;99545.31;5017126;28;20440;-50
2023/01/12 10:56:26;;;;;;;29.73;27.70;;;;;;;8.98;100.00;99536.31;5015651;28;20443;-46
2023/01/12 10:58:57;;;;;;;30.60;28.60;;;;;;;9.00;100.00;99548.34;5016323;28;20439;-47
2023/01/12 11:01:25;;;;;;;31.37;29.00;;;;;;;8.99;100.00;99549.38;5016513;28;20815;-46
2023/01/12 11:04:04;;;;;;;34.40;31.00;;;;;;;9.01;100.00;99549.19;5015896;28;20437;-48
2023/01/12 11:06:31;;;;;;;35.20;31.90;;;;;;;9.07;100.00;99550.97;5016318;28;20483;-45
2023/01/12 11:09:17;;;;;;;34.70;31.67;;;;;;;9.07;100.00;99546.47;5016519;28;20444;-50
2023/01/12 11:11:46;;;;;;;35.93;32.80;;;;;;;9.09;100.00;99541.75;5015625;28;20472;-47
2023/01/12 11:14:24;;;;;;;37.97;34.03;;;;;;;9.07;100.00;99546.47;5016871;28;20444;-48
2023/01/12 11:16:51;;;;;;;36.27;32.50;;;;;;;9.06;100.00;99558.13;5017231;28;20433;-50
2023/01/12 11:19:25;;;;;;;35.97;32.77;;;;;;;9.08;100.00;99565.91;5016043;28;20433;-46
2023/01/12 11:22:00;;;;;;;36.50;33.43;;;;;;;9.12;100.00;99562.59;5016026;28;20826;-48
2023/01/12 11:24:36;;;;;;;36.67;33.23;;;;;;;9.13;100.00;99556.25;5016665;28;20436;-49
2023/01/12 11:27:14;;;;;;;37.97;34.07;;;;;;;9.13;100.00;99558.91;5017375;28;20477;-48
2023/01/12 11:29:51;;;;;;;39.93;35.60;;;;;;;9.15;100.00;99564.81;5017911;28;21005;-49
2023/01/12 11:32:31;;;;;;;39.97;35.83;;;;;;;9.14;100.00;99547.22;5016557;28;20460;-48
2023/01/12 11:35:04;;;;;;;46.27;36.10;;;;;;;9.17;100.00;99568.06;5016313;28;20429;-46
2023/01/12 11:37:37;;;;;;;39.27;35.10;;;;;;;9.17;100.00;99554.78;5016741;28;20740;-44
2023/01/12 11:40:15;;;;;;;42.23;36.37;;;;;;;9.15;100.00;99551.53;5008311;28;20467;-47
2023/01/12 11:45:42;;;;;;;41.47;37.23;;;;;;;9.12;100.00;99549.28;5015616;28;20433;-49
2023/01/12 11:48:20;;;;;;;47.23;36.90;;;;;;;9.17;100.00;99557.44;5018830;28;20534;-47
2023/01/12 11:50:49;;;;;;;41.63;37.17;;;;;;;9.17;100.00;99553.97;5018090;28;20463;-48
2023/01/12 11:53:21;;;;;;;40.83;36.40;;;;;;;9.18;100.00;99569.72;5018283;28;20461;-45
2023/01/12 11:56:00;;;;;;;43.03;36.30;;;;;;;9.22;100.00;99573.56;5018073;28;20437;-45
2023/01/12 11:58:38;;;;;;;40.77;35.40;;;;;;;9.18;100.00;99559.06;5018241;28;20440;-44
2023/01/12 12:01:14;;;;;;;37.87;34.07;;;;;;;9.16;100.00;99558.47;5018643;28;20826;-46
2023/01/12 12:03:54;;;;;;;37.13;33.53;;;;;;;9.23;100.00;99571.72;5017555;28;20461;-48
2023/01/12 12:06:48;;;;;;;47.30;35.10;;;;;;;9.28;100.00;99563.91;5017667;28;20433;-45
2023/01/12 12:09:40;;;;;;;44.97;36.80;;;;;;;9.30;100.00;99548.53;5017767;28;20474;-47